Apple Valley, Minnesota
Current Conditions -  °F | °C
As of 1:09 PM on Thursday 23 Oct 2014 (Local Time) from KLVN Reporting Station
Clear Clear  
Wind Chill: 61°   Ceiling: Unl
Heat Index: 61°   Visibility: 10mi
Dew Point: 52°   Wind: 5mph
Humidity: 72%   Direction: 190°S
Pressure: 29.99"   Gusts: NA
Location:  44.74°N, 93.22°W
Report Text: KLVN 231809Z AUTO 19004KT 10SM CLR 16/11 A2999 RMK AO2
Loading
Personal Weather Stations






























Interactive Weather Map
Tropical Storm Tracking
New forecast layout! Learn more

10-Day Weather Forecast

Advertisements
Track Severe Weather on mobile